Silver Wind — C6FG2 — position and weather

sailwx.info

Track history (hours):
 
Tides and Currents Weather Stations Pressure Air Temp Water Temp Dewpoint Dewpoint Depression Visibility Wind Speed Wind Dir Waves Ship Positions

Silver Wind

Operator: V Ships Leisure

Last reported at 2018-Feb-22 11:47 UTC. Time now 2018-Feb-22 15:00 UTC.
Position N 14°36' W 061°04'.

Length 156 m; draft 5.7 m.

Type: Passenger vessel. MMSI: 308814000.

Date/timePositionNaut miles runAvg speedWind from/ knotsBaromVisibWave heightAir tempDewpointWater temp
2018-Feb-22 11:47N 14°36' W 061°04'12313.0
2018-Feb-22 02:23N 16°18' W 062°14'615.0
2018-Feb-22 01:58N 16°24' W 062°17'715.0
2018-Feb-22 01:29N 16°30' W 062°21'914.5
2018-Feb-22 00:52N 16°38' W 062°26'514.2
2018-Feb-22 00:30N 16°42' W 062°29'3114.3
2018-Feb-21 22:22N 17°09' W 062°43'714.4
2018-Feb-21 21:51N 17°16' W 062°43'1 0.3
2018-Feb-21 19:41N 17°17' W 062°44'0 0.2
2018-Feb-21 19:26N 17°17' W 062°44'0 0.1
2018-Feb-21 18:47N 17°17' W 062°44'0 0.2
2018-Feb-21 18:23N 17°17' W 062°44'0 0.0
2018-Feb-21 17:53N 17°17' W 062°44'0 0.1
2018-Feb-21 17:29N 17°17' W 062°44'0 0.1
2018-Feb-21 16:44N 17°17' W 062°44'0 0.0
2018-Feb-21 16:26N 17°17' W 062°44'0 0.1
2018-Feb-21 15:11N 17°17' W 062°44'0 0.0
2018-Feb-21 14:14N 17°17' W 062°44'0 0.1
2018-Feb-21 13:56N 17°17' W 062°44'0 0.0
2018-Feb-21 13:20N 17°17' W 062°44'0 0.1
2018-Feb-21 12:47N 17°17' W 062°44'0 0.0
2018-Feb-21 12:26N 17°17' W 062°44'0 0.0
2018-Feb-21 11:50N 17°17' W 062°44'0 0.2
2018-Feb-21 11:22N 17°17' W 062°44'7 8.4
2018-Feb-21 10:35N 17°18' W 062°51'114.0
2018-Feb-21 10:29N 17°18' W 062°52'7 8.3
2018-Feb-21 09:41N 17°22' W 062°58'1 5.9
2018-Feb-21 09:28N 17°22' W 062°59'14 5.9
2018-Feb-21 07:05N 17°35' W 063°06'2 6.5
2018-Feb-21 06:51N 17°36' W 063°06'2 6.4
2018-Feb-21 06:28N 17°39' W 063°06'5 6.7
2018-Feb-21 05:41N 17°44' W 063°06'1 6.7
2018-Feb-21 05:28N 17°46' W 063°06'4 6.6
2018-Feb-21 04:53N 17°49' W 063°06'3 6.7
2018-Feb-21 04:25N 17°53' W 063°06'3 6.3
2018-Feb-21 03:59N 17°55' W 063°06'3 6.3
2018-Feb-21 03:30N 17°58' W 063°06'4 6.6
2018-Feb-21 02:53N 18°01' W 063°03'0 0.1
2018-Feb-21 02:24N 18°01' W 063°03'0 0.0
2018-Feb-21 01:51N 18°01' W 063°03'0 0.0
2018-Feb-21 01:23N 18°01' W 063°03'0 0.0
2018-Feb-21 00:57N 18°01' W 063°03'0 0.0
2018-Feb-21 00:27N 18°01' W 063°03'0 0.0
2018-Feb-20 23:57N 18°01' W 063°03'0 0.0
2018-Feb-20 23:23N 18°01' W 063°03'0 0.0
2018-Feb-20 22:56N 18°01' W 063°03'0 0.0
2018-Feb-20 22:24N 18°01' W 063°03'0 0.0
2018-Feb-20 13:39N 18°01' W 063°03'0 0.0
2018-Feb-20 13:21N 18°01' W 063°03'0 0.0
2018-Feb-20 12:53N 18°01' W 063°03'0 0.0
2018-Feb-20 12:24N 18°01' W 063°03'0 0.0
2018-Feb-20 11:42N 18°01' W 063°03'0 0.7
2018-Feb-20 11:21N 18°01' W 063°03'4 9.9
2018-Feb-20 10:55N 18°00' W 063°08'613.5
2018-Feb-20 10:26N 18°01' W 063°14'713.5
2018-Feb-20 09:57N 18°03' W 063°21'4 8.5
2018-Feb-20 09:30N 18°03' W 063°25'4 8.3
2018-Feb-20 08:58N 18°05' W 063°29'4 8.1
2018-Feb-20 08:27N 18°06' W 063°34'4 7.7
2018-Feb-20 08:00N 18°06' W 063°37'4 7.8
2018-Feb-20 07:30N 18°07' W 063°41'  
2018-Feb-18 01:01N 17°52' W 063°35'016.2
2018-Feb-18 00:59N 17°51' W 063°34'915.7
2018-Feb-18 00:23N 17°48' W 063°25'615.9
2018-Feb-18 00:00N 17°46' W 063°19'816.0
2018-Feb-17 23:29N 17°42' W 063°11'916.0
2018-Feb-17 22:57N 17°39' W 063°03'816.0
2018-Feb-17 22:25N 17°35' W 062°55'2916.1
2018-Feb-17 20:37N 17°23' W 062°27'216.0
2018-Feb-17 20:30N 17°22' W 062°25'815.9
2018-Feb-17 20:01N 17°19' W 062°18'815.9
2018-Feb-17 19:31N 17°16' W 062°10'816.0
2018-Feb-17 19:00N 17°12' W 062°03'815.9
2018-Feb-17 18:30N 17°10' W 061°55'4 8.0
2018-Feb-17 18:00N 17°07' W 061°51'1 1.2
2018-Feb-17 17:28N 17°07' W 061°51'0 0.0
2018-Feb-17 16:58N 17°07' W 061°51'0 0.0
2018-Feb-17 16:28N 17°07' W 061°51'0 0.0
2018-Feb-17 15:58N 17°07' W 061°51'0 0.0
2018-Feb-17 15:28N 17°07' W 061°51'0 0.0
2018-Feb-17 14:58N 17°07' W 061°51'0 0.0
2018-Feb-17 14:28N 17°07' W 061°51'0 0.0
2018-Feb-17 13:58N 17°07' W 061°51'0 0.0
2018-Feb-17 13:28N 17°07' W 061°51'0 0.0
2018-Feb-17 12:58N 17°07' W 061°51'0 0.0
2018-Feb-17 12:28N 17°07' W 061°51'0 0.0
2018-Feb-17 11:58N 17°07' W 061°51'0 0.8
2018-Feb-17 11:30N 17°07' W 061°51'510.6
2018-Feb-17 11:00N 17°09' W 061°57'611.9
2018-Feb-17 10:30N 17°03' W 061°59'714.0
2018-Feb-17 10:00N 16°57' W 061°60'815.0
2018-Feb-17 09:30N 16°49' W 062°00'715.0
2018-Feb-17 09:00N 16°42' W 062°01'714.7
2018-Feb-17 08:30N 16°34' W 062°02'714.2
2018-Feb-17 08:00N 16°27' W 062°02'1114.8
2018-Feb-17 07:17N 16°17' W 062°03'514.8
2018-Feb-17 06:59N 16°12' W 062°02'6015.0
2018-Feb-17 02:57N 15°15' W 061°40'4114.9
2018-Feb-17 00:13N 14°38' W 061°24'1815.1
2018-Feb-16 23:03N 14°22' W 061°17'114.8
2018-Feb-16 22:59N 14°21' W 061°16'715.1
2018-Feb-16 22:30N 14°15' W 061°12'  
2018-Feb-14 02:33N 14°29' W 061°12'116.8
2018-Feb-14 02:29N 14°30' W 061°12'815.1
2018-Feb-14 01:55N 14°35' W 061°05'2 1.5
2018-Feb-14 00:51N 14°36' W 061°04'0 0.0
2018-Feb-14 00:30N 14°36' W 061°04'0 0.0
2018-Feb-14 00:00N 14°36' W 061°04'0 0.0
2018-Feb-13 11:43N 14°36' W 061°04'1 6.1
2018-Feb-13 11:30N 14°35' W 061°04'12814.0
2018-Feb-13 02:20N 16°23' W 062°17'514.8
2018-Feb-13 01:59N 16°27' W 062°20'1414.8
2018-Feb-13 01:02N 16°39' W 062°27'114.9
2018-Feb-13 00:59N 16°40' W 062°28'40 3.8
2018-Feb-12 14:22N 17°17' W 062°44'710.7
2018-Feb-12 13:42N 17°18' W 062°51'617.3
2018-Feb-12 13:22N 17°21' W 062°56'716.5
2018-Feb-12 12:56N 17°25' W 063°03'1416.9
2018-Feb-12 12:08N 17°37' W 063°08'216.9
2018-Feb-12 12:00N 17°39' W 063°09'  
Track history (hours):
 
Tides and Currents Weather Stations Pressure Air Temp Water Temp Dewpoint Dewpoint Depression Visibility Wind Speed Wind Dir Waves Ship Positions

Silver Wind

Operator: V Ships Leisure

Last reported at 2018-Feb-22 11:47 UTC. Time now 2018-Feb-22 15:00 UTC.
Position N 14°36' W 061°04'.

Length 156 m; draft 5.7 m.

Type: Passenger vessel. MMSI: 308814000.

Date/timePositionNaut miles runAvg speedWind from/ knotsBaromVisibWave heightAir tempDewpointWater temp
2018-Feb-22 11:47N 14°36' W 061°04'12313.0
2018-Feb-22 02:23N 16°18' W 062°14'615.0
2018-Feb-22 01:58N 16°24' W 062°17'715.0
2018-Feb-22 01:29N 16°30' W 062°21'914.5
2018-Feb-22 00:52N 16°38' W 062°26'514.2
2018-Feb-22 00:30N 16°42' W 062°29'3114.3
2018-Feb-21 22:22N 17°09' W 062°43'714.4
2018-Feb-21 21:51N 17°16' W 062°43'1 0.3
2018-Feb-21 19:41N 17°17' W 062°44'0 0.2
2018-Feb-21 19:26N 17°17' W 062°44'0 0.1
2018-Feb-21 18:47N 17°17' W 062°44'0 0.2
2018-Feb-21 18:23N 17°17' W 062°44'0 0.0
2018-Feb-21 17:53N 17°17' W 062°44'0 0.1
2018-Feb-21 17:29N 17°17' W 062°44'0 0.1
2018-Feb-21 16:44N 17°17' W 062°44'0 0.0
2018-Feb-21 16:26N 17°17' W 062°44'0 0.1
2018-Feb-21 15:11N 17°17' W 062°44'0 0.0
2018-Feb-21 14:14N 17°17' W 062°44'0 0.1
2018-Feb-21 13:56N 17°17' W 062°44'0 0.0
2018-Feb-21 13:20N 17°17' W 062°44'0 0.1
2018-Feb-21 12:47N 17°17' W 062°44'0 0.0
2018-Feb-21 12:26N 17°17' W 062°44'0 0.0
2018-Feb-21 11:50N 17°17' W 062°44'0 0.2
2018-Feb-21 11:22N 17°17' W 062°44'7 8.4
2018-Feb-21 10:35N 17°18' W 062°51'114.0
2018-Feb-21 10:29N 17°18' W 062°52'7 8.3
2018-Feb-21 09:41N 17°22' W 062°58'1 5.9
2018-Feb-21 09:28N 17°22' W 062°59'14 5.9
2018-Feb-21 07:05N 17°35' W 063°06'2 6.5
2018-Feb-21 06:51N 17°36' W 063°06'2 6.4
2018-Feb-21 06:28N 17°39' W 063°06'5 6.7
2018-Feb-21 05:41N 17°44' W 063°06'1 6.7
2018-Feb-21 05:28N 17°46' W 063°06'4 6.6
2018-Feb-21 04:53N 17°49' W 063°06'3 6.7
2018-Feb-21 04:25N 17°53' W 063°06'3 6.3
2018-Feb-21 03:59N 17°55' W 063°06'3 6.3
2018-Feb-21 03:30N 17°58' W 063°06'4 6.6
2018-Feb-21 02:53N 18°01' W 063°03'0 0.1
2018-Feb-21 02:24N 18°01' W 063°03'0 0.0
2018-Feb-21 01:51N 18°01' W 063°03'0 0.0
2018-Feb-21 01:23N 18°01' W 063°03'0 0.0
2018-Feb-21 00:57N 18°01' W 063°03'0 0.0
2018-Feb-21 00:27N 18°01' W 063°03'0 0.0
2018-Feb-20 23:57N 18°01' W 063°03'0 0.0
2018-Feb-20 23:23N 18°01' W 063°03'0 0.0
2018-Feb-20 22:56N 18°01' W 063°03'0 0.0
2018-Feb-20 22:24N 18°01' W 063°03'0 0.0
2018-Feb-20 13:39N 18°01' W 063°03'0 0.0
2018-Feb-20 13:21N 18°01' W 063°03'0 0.0
2018-Feb-20 12:53N 18°01' W 063°03'0 0.0
2018-Feb-20 12:24N 18°01' W 063°03'0 0.0
2018-Feb-20 11:42N 18°01' W 063°03'0 0.7
2018-Feb-20 11:21N 18°01' W 063°03'4 9.9
2018-Feb-20 10:55N 18°00' W 063°08'613.5
2018-Feb-20 10:26N 18°01' W 063°14'713.5
2018-Feb-20 09:57N 18°03' W 063°21'4 8.5
2018-Feb-20 09:30N 18°03' W 063°25'4 8.3
2018-Feb-20 08:58N 18°05' W 063°29'4 8.1
2018-Feb-20 08:27N 18°06' W 063°34'4 7.7
2018-Feb-20 08:00N 18°06' W 063°37'4 7.8
2018-Feb-20 07:30N 18°07' W 063°41'  
2018-Feb-18 01:01N 17°52' W 063°35'016.2
2018-Feb-18 00:59N 17°51' W 063°34'915.7
2018-Feb-18 00:23N 17°48' W 063°25'615.9
2018-Feb-18 00:00N 17°46' W 063°19'816.0
2018-Feb-17 23:29N 17°42' W 063°11'916.0
2018-Feb-17 22:57N 17°39' W 063°03'816.0
2018-Feb-17 22:25N 17°35' W 062°55'2916.1
2018-Feb-17 20:37N 17°23' W 062°27'216.0
2018-Feb-17 20:30N 17°22' W 062°25'815.9
2018-Feb-17 20:01N 17°19' W 062°18'815.9
2018-Feb-17 19:31N 17°16' W 062°10'816.0
2018-Feb-17 19:00N 17°12' W 062°03'815.9
2018-Feb-17 18:30N 17°10' W 061°55'4 8.0
2018-Feb-17 18:00N 17°07' W 061°51'1 1.2
2018-Feb-17 17:28N 17°07' W 061°51'0 0.0
2018-Feb-17 16:58N 17°07' W 061°51'0 0.0
2018-Feb-17 16:28N 17°07' W 061°51'0 0.0
2018-Feb-17 15:58N 17°07' W 061°51'0 0.0
2018-Feb-17 15:28N 17°07' W 061°51'0 0.0
2018-Feb-17 14:58N 17°07' W 061°51'0 0.0
2018-Feb-17 14:28N 17°07' W 061°51'0 0.0
2018-Feb-17 13:58N 17°07' W 061°51'0 0.0
2018-Feb-17 13:28N 17°07' W 061°51'0 0.0
2018-Feb-17 12:58N 17°07' W 061°51'0 0.0
2018-Feb-17 12:28N 17°07' W 061°51'0 0.0
2018-Feb-17 11:58N 17°07' W 061°51'0 0.8
2018-Feb-17 11:30N 17°07' W 061°51'510.6
2018-Feb-17 11:00N 17°09' W 061°57'611.9
2018-Feb-17 10:30N 17°03' W 061°59'714.0
2018-Feb-17 10:00N 16°57' W 061°60'815.0
2018-Feb-17 09:30N 16°49' W 062°00'715.0
2018-Feb-17 09:00N 16°42' W 062°01'714.7
2018-Feb-17 08:30N 16°34' W 062°02'714.2
2018-Feb-17 08:00N 16°27' W 062°02'1114.8
2018-Feb-17 07:17N 16°17' W 062°03'514.8
2018-Feb-17 06:59N 16°12' W 062°02'6015.0
2018-Feb-17 02:57N 15°15' W 061°40'4114.9
2018-Feb-17 00:13N 14°38' W 061°24'1815.1
2018-Feb-16 23:03N 14°22' W 061°17'114.8
2018-Feb-16 22:59N 14°21' W 061°16'715.1
2018-Feb-16 22:30N 14°15' W 061°12'  
2018-Feb-14 02:33N 14°29' W 061°12'116.8
2018-Feb-14 02:29N 14°30' W 061°12'815.1
2018-Feb-14 01:55N 14°35' W 061°05'2 1.5
2018-Feb-14 00:51N 14°36' W 061°04'0 0.0
2018-Feb-14 00:30N 14°36' W 061°04'0 0.0
2018-Feb-14 00:00N 14°36' W 061°04'0 0.0
2018-Feb-13 11:43N 14°36' W 061°04'1 6.1
2018-Feb-13 11:30N 14°35' W 061°04'12814.0
2018-Feb-13 02:20N 16°23' W 062°17'514.8
2018-Feb-13 01:59N 16°27' W 062°20'1414.8
2018-Feb-13 01:02N 16°39' W 062°27'114.9
2018-Feb-13 00:59N 16°40' W 062°28'40 3.8
2018-Feb-12 14:22N 17°17' W 062°44'710.7
2018-Feb-12 13:42N 17°18' W 062°51'617.3
2018-Feb-12 13:22N 17°21' W 062°56'716.5
2018-Feb-12 12:56N 17°25' W 063°03'1416.9
2018-Feb-12 12:08N 17°37' W 063°08'216.9
2018-Feb-12 12:00N 17°39' W 063°09'  

Dump ship's entire track history